Christian Radich — LJLM — position and weather

sailwx.info

Track history (hours):
 
Tides and Currents Weather Stations Pressure Air Temp Water Temp Dewpoint Dewpoint Depression Visibility Wind Speed Wind Dir Waves Ship Positions

Christian Radich (Norway)

Last reported at 2017-Nov-05 16:21 UTC. Time now 2017-Nov-20 15:44 UTC.
Position N 27°41' W 015°16'.
Warning: this ship's position is 14 days out of date.

Length 63 m; draft 5 m.

MMSI: 258373000.

Date/timePositionNaut miles runAvg speedWind from/ knotsBaromVisibWave heightAir tempDewpointWater temp
2017-Nov-05 16:21N 27°41' W 015°16'3 8.4
2017-Nov-05 15:58N 27°45' W 015°15'4 8.7
2017-Nov-05 15:30N 27°49' W 015°16'4 8.7
2017-Nov-05 15:00N 27°53' W 015°16'3 6.8
2017-Nov-05 14:30N 27°56' W 015°16'3 6.5
2017-Nov-05 14:00N 27°59' W 015°18'3 6.5
2017-Nov-05 13:30N 28°02' W 015°19'3 6.2
2017-Nov-05 13:00N 28°05' W 015°20'2 4.2
2017-Nov-05 12:30N 28°07' W 015°22'2 4.1
2017-Nov-05 12:00N 28°07' W 015°24'2 2.9
2017-Nov-05 11:23N 28°08' W 015°25'0 0.0
2017-Nov-05 10:59N 28°08' W 015°25'0 0.0
2017-Nov-05 10:29N 28°08' W 015°25'0 0.0
2017-Nov-05 09:57N 28°08' W 015°25'0 0.0
2017-Nov-05 09:30N 28°08' W 015°25'0 0.0
2017-Nov-05 08:54N 28°08' W 015°25'0 0.0
2017-Nov-05 08:25N 28°08' W 015°25'0 0.0
2017-Nov-05 07:49N 28°08' W 015°25'0 0.0
2017-Nov-05 07:28N 28°08' W 015°25'0 0.0
2017-Nov-05 06:50N 28°08' W 015°25'0 0.0
2017-Nov-05 06:26N 28°08' W 015°25'0 0.0
2017-Nov-05 05:59N 28°08' W 015°25'0 0.0
2017-Nov-05 05:24N 28°08' W 015°25'0 0.0
2017-Nov-05 05:00N 28°08' W 015°25'0 0.0
2017-Nov-05 04:30N 28°08' W 015°25'0 0.0
2017-Nov-05 03:58N 28°08' W 015°25'0 0.0
2017-Nov-05 03:19N 28°08' W 015°25'0 0.0
2017-Nov-05 02:55N 28°08' W 015°25'0 0.0
2017-Nov-05 02:29N 28°08' W 015°25'0 0.0
2017-Nov-05 01:53N 28°08' W 015°25'0 0.0
2017-Nov-05 01:29N 28°08' W 015°25'0 0.0
2017-Nov-05 00:54N 28°08' W 015°25'0 0.0
2017-Nov-05 00:27N 28°08' W 015°25'0 0.0
2017-Nov-05 00:00N 28°08' W 015°25'0 0.0
2017-Nov-04 23:25N 28°08' W 015°25'0 0.0
2017-Nov-04 22:58N 28°08' W 015°25'0 0.0
2017-Nov-04 22:22N 28°08' W 015°25'0 0.0
2017-Nov-04 21:59N 28°08' W 015°25'0 0.0
2017-Nov-04 21:23N 28°08' W 015°25'0 0.0
2017-Nov-04 20:56N 28°08' W 015°25'0 0.0
2017-Nov-04 20:30N 28°08' W 015°25'0 0.0
2017-Nov-04 19:54N 28°08' W 015°25'0 0.0
2017-Nov-04 19:18N 28°08' W 015°25'0 0.0
2017-Nov-04 18:55N 28°08' W 015°25'0 0.0
2017-Nov-04 18:28N 28°08' W 015°25'0 0.0
2017-Nov-04 17:52N 28°08' W 015°25'0 0.0
2017-Nov-04 17:26N 28°08' W 015°25'0 0.0
2017-Nov-04 16:59N 28°08' W 015°25'0 0.0
2017-Nov-04 16:23N 28°08' W 015°25'0 0.0
2017-Nov-04 16:00N 28°08' W 015°25'0 0.0
2017-Nov-04 15:24N 28°08' W 015°25'0 0.0
2017-Nov-04 14:57N 28°08' W 015°25'0 0.0
2017-Nov-04 14:22N 28°08' W 015°25'0 0.0
2017-Nov-04 13:55N 28°08' W 015°25'0 0.0
2017-Nov-04 13:28N 28°08' W 015°25'0 0.0
2017-Nov-04 12:56N 28°08' W 015°25'0 0.0
2017-Nov-04 12:29N 28°08' W 015°25'0 0.0
2017-Nov-04 11:53N 28°08' W 015°25'0 0.0
2017-Nov-04 11:27N 28°08' W 015°25'0 0.0
2017-Nov-04 11:00N 28°08' W 015°25'0 0.0
2017-Nov-04 10:27N 28°08' W 015°25'0 0.0
2017-Nov-04 09:58N 28°08' W 015°25'0 0.0
2017-Nov-04 09:25N 28°08' W 015°25'0 0.0
2017-Nov-04 08:58N 28°08' W 015°25'0 0.0
2017-Nov-04 08:23N 28°08' W 015°25'0 0.0
2017-Nov-04 07:59N 28°08' W 015°25'0 0.0
2017-Nov-04 07:29N 28°08' W 015°25'0 0.0
2017-Nov-04 06:57N 28°08' W 015°25'0 0.0
2017-Nov-04 06:15N 28°08' W 015°25'0 0.0
2017-Nov-04 05:54N 28°08' W 015°25'0 0.0
2017-Nov-04 05:28N 28°08' W 015°25'0 0.0
2017-Nov-04 04:52N 28°08' W 015°25'0 0.0
2017-Nov-04 04:28N 28°08' W 015°25'0 0.0
2017-Nov-04 03:59N 28°08' W 015°25'0 0.0
2017-Nov-04 03:26N 28°08' W 015°25'0 0.0
2017-Nov-04 02:59N 28°08' W 015°25'0 0.0
2017-Nov-04 02:24N 28°08' W 015°25'0 0.0
2017-Nov-04 02:00N 28°08' W 015°25'0 0.0
2017-Nov-04 01:30N 28°08' W 015°25'0 0.0
2017-Nov-04 00:58N 28°08' W 015°25'0 0.0
2017-Nov-04 00:28N 28°08' W 015°25'0 0.0
2017-Nov-03 23:55N 28°08' W 015°25'0 0.0
2017-Nov-03 23:29N 28°08' W 015°25'0 0.0
2017-Nov-03 22:53N 28°08' W 015°25'0 0.0
2017-Nov-03 22:29N 28°08' W 015°25'0 0.0
2017-Nov-03 22:00N 28°08' W 015°25'0 0.0
2017-Nov-03 21:27N 28°08' W 015°25'0 0.0
2017-Nov-03 21:00N 28°08' W 015°25'0 0.0
2017-Nov-03 20:25N 28°08' W 015°25'0 0.0
2017-Nov-03 19:58N 28°08' W 015°25'0 0.0
2017-Nov-03 19:22N 28°08' W 015°25'0 0.0
2017-Nov-03 18:59N 28°08' W 015°25'0 0.0
2017-Nov-03 18:20N 28°08' W 015°25'0 0.0
2017-Nov-03 17:44N 28°08' W 015°25'0 0.0
2017-Nov-03 17:30N 28°08' W 015°25'0 0.0
2017-Nov-03 16:54N 28°08' W 015°25'0 0.0
2017-Nov-03 16:30N 28°08' W 015°25'0 0.0
2017-Nov-03 15:52N 28°08' W 015°25'0 0.0
2017-Nov-03 15:25N 28°08' W 015°25'0 0.0
2017-Nov-03 14:49N 28°08' W 015°25'0 0.0
2017-Nov-03 14:26N 28°08' W 015°25'0 0.0
2017-Nov-03 13:59N 28°08' W 015°25'0 0.0
2017-Nov-03 13:23N 28°08' W 015°25'0 0.0
2017-Nov-03 12:57N 28°08' W 015°25'0 0.0
2017-Nov-03 12:21N 28°08' W 015°25'0 0.0
2017-Nov-03 11:57N 28°08' W 015°25'0 0.0
2017-Nov-03 11:22N 28°08' W 015°25'0 0.0
2017-Nov-03 10:55N 28°08' W 015°25'0 0.0
2017-Nov-03 10:28N 28°08' W 015°25'0 0.0
2017-Nov-03 09:50N 28°08' W 015°25'0 0.0
2017-Nov-03 09:29N 28°08' W 015°25'0 0.0
2017-Nov-03 08:50N 28°08' W 015°25'0 0.0
2017-Nov-03 08:27N 28°08' W 015°25'0 0.0
2017-Nov-03 08:00N 28°08' W 015°25'0 0.0
2017-Nov-03 07:24N 28°08' W 015°25'0 0.0
2017-Nov-03 06:58N 28°08' W 015°25'0 0.0
2017-Nov-03 06:22N 28°08' W 015°25'0 0.0
2017-Nov-03 05:58N 28°08' W 015°25'0 0.0
2017-Nov-03 05:23N 28°08' W 015°25'0 0.0
2017-Nov-03 04:56N 28°08' W 015°25'0 0.0
2017-Nov-03 04:29N 28°08' W 015°25'0 0.0
2017-Nov-03 03:54N 28°08' W 015°25'0 0.0
2017-Nov-03 03:30N 28°08' W 015°25'0 0.0
2017-Nov-03 02:51N 28°08' W 015°25'0 0.0
2017-Nov-03 02:28N 28°08' W 015°25'0 0.0
2017-Nov-03 01:52N 28°08' W 015°25'0 0.0
2017-Nov-03 01:25N 28°08' W 015°25'0 0.0
2017-Nov-03 00:59N 28°08' W 015°25'0 0.0
2017-Nov-03 00:23N 28°08' W 015°25'0 0.0
2017-Nov-02 23:59N 28°08' W 015°25'0 0.0
2017-Nov-02 23:24N 28°08' W 015°25'0 0.0
2017-Nov-02 22:57N 28°08' W 015°25'0 0.0
2017-Nov-02 22:30N 28°08' W 015°25'0 0.0
2017-Nov-02 21:52N 28°08' W 015°25'0 0.0
2017-Nov-02 21:19N 28°08' W 015°25'0 0.0
2017-Nov-02 20:52N 28°08' W 015°25'0 0.0
2017-Nov-02 20:29N 28°08' W 015°25'0 0.0
2017-Nov-02 19:53N 28°08' W 015°25'0 0.0
2017-Nov-02 19:26N 28°08' W 015°25'0 0.0
2017-Nov-02 19:00N 28°08' W 015°25'0 0.0
2017-Nov-02 18:24N 28°08' W 015°25'0 0.0
2017-Nov-02 18:00N 28°08' W 015°25'0 0.0
2017-Nov-02 17:25N 28°08' W 015°25'0 0.0
2017-Nov-02 16:58N 28°08' W 015°25'0 0.0
2017-Nov-02 16:22N 28°08' W 015°25'0 0.0
2017-Nov-02 15:56N 28°08' W 015°25'0 0.0
2017-Nov-02 15:29N 28°08' W 015°25'0 0.0
2017-Nov-02 14:56N 28°08' W 015°25'0 0.0
2017-Nov-02 14:30N 28°08' W 015°25'0 0.0
2017-Nov-02 13:54N 28°08' W 015°25'0 0.0
2017-Nov-02 13:27N 28°08' W 015°25'0 0.0
2017-Nov-02 12:52N 28°08' W 015°25'0 0.0
2017-Nov-02 12:28N 28°08' W 015°25'0 0.0
2017-Nov-02 11:58N 28°08' W 015°25'0 0.0
2017-Nov-02 11:26N 28°08' W 015°25'0 0.0
2017-Nov-02 10:59N 28°08' W 015°25'0 0.0
2017-Nov-02 10:23N 28°08' W 015°25'0 0.0
2017-Nov-02 10:00N 28°08' W 015°25'0 0.0
2017-Nov-02 09:30N 28°08' W 015°25'0 0.0
2017-Nov-02 08:57N 28°08' W 015°25'0 0.0
2017-Nov-02 08:28N 28°08' W 015°25'0 0.0
2017-Nov-02 07:55N 28°08' W 015°25'0 0.0
2017-Nov-02 07:28N 28°08' W 015°25'0 0.0
2017-Nov-02 06:53N 28°08' W 015°25'0 0.0
2017-Nov-02 06:29N 28°08' W 015°25'0 0.0
2017-Nov-02 05:59N 28°08' W 015°25'0 0.0
2017-Nov-02 05:27N 28°08' W 015°25'0 0.0
2017-Nov-02 05:00N 28°08' W 015°25'0 0.0
2017-Nov-02 04:24N 28°08' W 015°25'0 0.0
2017-Nov-02 03:58N 28°08' W 015°25'0 0.0
2017-Nov-02 03:19N 28°08' W 015°25'0 0.0
2017-Nov-02 02:58N 28°08' W 015°25'0 0.0
2017-Nov-02 02:29N 28°08' W 015°25'0 0.0
2017-Nov-02 01:56N 28°08' W 015°25'0 0.0
2017-Nov-02 01:29N 28°08' W 015°25'0 0.0
2017-Nov-02 00:54N 28°08' W 015°25'0 0.0
2017-Nov-02 00:30N 28°08' W 015°25'0 0.0
2017-Nov-02 00:00N 28°08' W 015°25'0 0.0
2017-Nov-01 23:28N 28°08' W 015°25'0 0.0
2017-Nov-01 22:49N 28°08' W 015°25'0 0.0
2017-Nov-01 22:25N 28°08' W 015°25'0 0.0
2017-Nov-01 21:59N 28°08' W 015°25'0 0.0
2017-Nov-01 21:23N 28°08' W 015°25'0 0.0
2017-Nov-01 20:59N 28°08' W 015°25'0 0.0
2017-Nov-01 20:24N 28°08' W 015°25'0 0.0
2017-Nov-01 19:57N 28°08' W 015°25'0 0.0
2017-Nov-01 19:30N 28°08' W 015°25'0 0.0
2017-Nov-01 18:55N 28°08' W 015°25'0 0.0
2017-Nov-01 18:19N 28°08' W 015°25'0 0.0
2017-Nov-01 01:58N 28°08' W 015°25'0 0.0
2017-Nov-01 01:23N 28°08' W 015°25'0 0.0
2017-Nov-01 00:56N 28°08' W 015°25'0 0.0
2017-Nov-01 00:29N 28°08' W 015°25'0 0.0
2017-Oct-31 23:54N 28°08' W 015°25'0 0.0
2017-Oct-31 23:30N 28°08' W 015°25'0 0.0
2017-Oct-31 22:54N 28°08' W 015°25'0 0.0
2017-Oct-31 22:27N 28°08' W 015°25'0 0.0
2017-Oct-31 21:52N 28°08' W 015°25'0 0.0
2017-Oct-31 21:25N 28°08' W 015°25'0 0.0
2017-Oct-31 20:50N 28°08' W 015°25'0 0.0
2017-Oct-31 20:26N 28°08' W 015°25'0 0.0
2017-Oct-31 19:59N 28°08' W 015°25'0 0.0
2017-Oct-31 19:23N 28°08' W 015°25'0 0.0
2017-Oct-31 18:57N 28°08' W 015°25'0 0.0
2017-Oct-31 18:30N 28°08' W 015°25'0 0.0
2017-Oct-31 17:57N 28°08' W 015°25'0 0.0
2017-Oct-31 17:28N 28°08' W 015°25'0 0.0
2017-Oct-31 16:52N 28°08' W 015°25'0 0.0
2017-Oct-31 16:17N 28°08' W 015°25'0 0.0
2017-Oct-31 15:53N 28°08' W 015°25'0 0.0
2017-Oct-31 15:29N 28°08' W 015°25'0 0.0
2017-Oct-31 14:59N 28°08' W 015°25'0 0.0
2017-Oct-31 14:27N 28°08' W 015°25'0 0.0
2017-Oct-31 14:00N 28°08' W 015°25'0 0.0
2017-Oct-31 13:25N 28°08' W 015°25'0 0.0
2017-Oct-31 12:58N 28°08' W 015°25'0 0.0
2017-Oct-31 12:22N 28°08' W 015°25'0 0.0
2017-Oct-31 11:58N 28°08' W 015°25'0 0.0
2017-Oct-31 11:29N 28°08' W 015°25'0 0.0
2017-Oct-31 10:56N 28°08' W 015°25'0 0.0
2017-Oct-31 10:29N 28°08' W 015°25'0 0.0
2017-Oct-31 09:54N 28°08' W 015°25'0 0.0
2017-Oct-31 09:24N 28°08' W 015°25'0 0.0
2017-Oct-31 09:00N 28°08' W 015°25'0 0.0
2017-Oct-31 08:28N 28°08' W 015°25'0 0.0
2017-Oct-31 07:58N 28°08' W 015°25'0 0.0
2017-Oct-31 07:25N 28°08' W 015°25'0 0.0
2017-Oct-31 06:59N 28°08' W 015°25'0 0.0
2017-Oct-31 06:23N 28°08' W 015°25'0 0.0
2017-Oct-31 05:59N 28°08' W 015°25'0 0.0
2017-Oct-31 05:30N 28°08' W 015°25'0 0.0
2017-Oct-31 04:57N 28°08' W 015°25'0 0.0
2017-Oct-31 04:30N 28°08' W 015°25'0 0.0
2017-Oct-31 03:55N 28°08' W 015°25'0 0.0
2017-Oct-31 03:25N 28°08' W 015°25'0 0.0
2017-Oct-31 02:52N 28°08' W 015°25'0 0.0
2017-Oct-31 02:29N 28°08' W 015°25'0 0.0
2017-Oct-31 01:59N 28°08' W 015°25'0 0.0
2017-Oct-31 01:26N 28°08' W 015°25'0 0.0
2017-Oct-31 01:00N 28°08' W 015°25'0 0.0
2017-Oct-31 00:24N 28°08' W 015°25'0 0.0
2017-Oct-31 00:00N 28°08' W 015°25'0 0.0
2017-Oct-30 23:22N 28°08' W 015°25'0 0.0
2017-Oct-30 22:58N 28°08' W 015°25'0 0.0
2017-Oct-30 22:28N 28°08' W 015°25'0 0.0
2017-Oct-30 21:56N 28°08' W 015°25'0 0.0
2017-Oct-30 21:29N 28°08' W 015°25'0 0.0
2017-Oct-30 20:53N 28°08' W 015°25'0 0.0
2017-Oct-30 20:30N 28°08' W 015°25'0 0.0
2017-Oct-30 20:00N 28°08' W 015°25'0 0.0
2017-Oct-30 19:27N 28°08' W 015°25'0 0.0
2017-Oct-30 18:58N 28°08' W 015°25'0 0.0
2017-Oct-30 18:25N 28°08' W 015°25'0 0.0
2017-Oct-30 17:58N 28°08' W 015°25'0 0.0
2017-Oct-30 17:23N 28°08' W 015°25'0 0.0
2017-Oct-30 16:59N 28°08' W 015°25'0 0.0
2017-Oct-30 16:21N 28°08' W 015°25'0 0.0
2017-Oct-30 15:57N 28°08' W 015°25'0 0.0
2017-Oct-30 15:30N 28°08' W 015°25'0 0.0
2017-Oct-30 14:54N 28°08' W 015°25'0 0.0
2017-Oct-30 13:52N 28°08' W 015°25'0 0.0
2017-Oct-30 13:28N 28°08' W 015°25'0 0.0
2017-Oct-30 12:53N 28°08' W 015°25'0 0.0
2017-Oct-30 12:26N 28°08' W 015°25'0 0.0
2017-Oct-30 11:59N 28°08' W 015°25'0 0.0
2017-Oct-30 11:24N 28°08' W 015°25'0 0.0
2017-Oct-30 11:00N 28°08' W 015°25'0 0.0
2017-Oct-30 10:30N 28°08' W 015°25'0 0.0
2017-Oct-30 09:58N 28°08' W 015°25'0 0.0
2017-Oct-30 09:19N 28°08' W 015°25'0 0.0
2017-Oct-30 08:55N 28°08' W 015°25'0 0.0
2017-Oct-30 08:29N 28°08' W 015°25'0 0.0
2017-Oct-30 07:53N 28°08' W 015°25'0 0.0
2017-Oct-30 07:29N 28°08' W 015°25'0 0.0
2017-Oct-30 06:54N 28°08' W 015°25'0 0.0
2017-Oct-30 06:27N 28°08' W 015°25'0 0.0
2017-Oct-30 06:00N 28°08' W 015°25'0 0.0
2017-Oct-30 05:25N 28°08' W 015°25'0 0.0
2017-Oct-30 04:58N 28°08' W 015°25'0 0.0
2017-Oct-30 04:25N 28°08' W 015°25'0 0.0
2017-Oct-30 03:59N 28°08' W 015°25'0 0.0
2017-Oct-30 03:23N 28°08' W 015°25'0 0.0
2017-Oct-30 02:56N 28°08' W 015°25'0 0.0
2017-Oct-30 02:30N 28°08' W 015°25'0 0.0
2017-Oct-30 01:57N 28°08' W 015°25'0 0.0
2017-Oct-30 01:30N 28°08' W 015°25'0 0.0
2017-Oct-30 00:55N 28°08' W 015°25'0 0.0
2017-Oct-30 00:28N 28°08' W 015°25'0 0.0
2017-Oct-29 23:53N 28°08' W 015°25'0 0.0
2017-Oct-29 23:26N 28°08' W 015°25'0 0.0
2017-Oct-29 22:59N 28°08' W 015°25'0 0.0
2017-Oct-29 22:26N 28°08' W 015°25'0 0.0
2017-Oct-29 22:00N 28°08' W 015°25'0 0.0
2017-Oct-29 21:24N 28°08' W 015°25'0 0.0
2017-Oct-29 20:57N 28°08' W 015°25'0 0.0
2017-Oct-29 20:22N 28°08' W 015°25'0 0.0
2017-Oct-29 19:58N 28°08' W 015°25'0 0.0
2017-Oct-29 19:28N 28°08' W 015°25'0 0.0
2017-Oct-29 18:44N 28°08' W 015°25'0 0.0
2017-Oct-29 18:29N 28°08' W 015°25'0 0.0
2017-Oct-29 17:54N 28°08' W 015°25'0 0.0
2017-Oct-29 17:30N 28°08' W 015°25'0 0.0
2017-Oct-29 17:00N 28°08' W 015°25'0 0.0
2017-Oct-29 16:27N 28°08' W 015°25'0 0.0
2017-Oct-29 15:58N 28°08' W 015°25'0 0.0
2017-Oct-29 15:25N 28°08' W 015°25'0 0.0
2017-Oct-29 14:55N 28°08' W 015°25'0 0.0
2017-Oct-29 14:23N 28°08' W 015°25'0 0.0
2017-Oct-29 13:56N 28°08' W 015°25'0 0.0
2017-Oct-29 13:29N 28°08' W 015°25'0 0.0
2017-Oct-29 12:57N 28°08' W 015°25'0 0.0
2017-Oct-29 12:30N 28°08' W 015°25'0 0.0
2017-Oct-29 11:54N 28°08' W 015°25'0 0.0
2017-Oct-29 11:28N 28°08' W 015°25'0 0.0
2017-Oct-29 10:52N 28°08' W 015°25'0 0.0
2017-Oct-29 10:28N 28°08' W 015°25'0 0.0
2017-Oct-29 09:59N 28°08' W 015°25'0 0.0
2017-Oct-29 09:14N 28°08' W 015°25'0 0.0
2017-Oct-29 08:59N 28°08' W 015°25'0 0.0
2017-Oct-29 08:24N 28°08' W 015°25'0 0.0
2017-Oct-29 08:00N 28°08' W 015°25'0 0.0
2017-Oct-29 07:30N 28°08' W 015°25'0 0.0
2017-Oct-29 06:58N 28°08' W 015°25'0 0.0
2017-Oct-29 06:28N 28°08' W 015°25'0 0.0
2017-Oct-29 05:55N 28°08' W 015°25'0 0.0
2017-Oct-29 05:29N 28°08' W 015°25'0 0.0
2017-Oct-29 04:53N 28°08' W 015°25'0 0.0
2017-Oct-29 04:29N 28°08' W 015°25'0 0.0
2017-Oct-29 03:48N 28°08' W 015°25'0 0.0
2017-Oct-28 18:57N 28°08' W 015°25'0 0.0
2017-Oct-28 18:30N 28°08' W 015°25'0 0.0
2017-Oct-28 17:57N 28°08' W 015°25'0 0.0
2017-Oct-28 17:28N 28°08' W 015°25'0 0.0
2017-Oct-28 16:55N 28°08' W 015°25'0 0.0
2017-Oct-28 16:28N 28°08' W 015°25'0 0.0
2017-Oct-28 15:53N 28°08' W 015°25'0 0.0
2017-Oct-28 15:29N 28°08' W 015°25'0 0.0
2017-Oct-28 14:59N 28°08' W 015°25'0 0.0
2017-Oct-28 14:27N 28°08' W 015°25'0 0.0
2017-Oct-28 14:00N 28°08' W 015°25'0 0.0
2017-Oct-28 13:24N 28°08' W 015°25'0 0.0
2017-Oct-28 12:58N 28°08' W 015°25'0 0.0
2017-Oct-28 12:19N 28°08' W 015°25'0 0.0
2017-Oct-28 11:55N 28°08' W 015°25'0 0.0
2017-Oct-28 11:29N 28°08' W 015°25'0 0.0
2017-Oct-28 10:56N 28°08' W 015°25'0 0.0
2017-Oct-28 10:29N 28°08' W 015°25'0 0.0
2017-Oct-28 09:54N 28°08' W 015°25'0 0.0
2017-Oct-28 09:27N 28°08' W 015°25'0 0.0
2017-Oct-28 09:00N 28°08' W 015°25'0 0.0
2017-Oct-28 08:28N 28°08' W 015°25'0 0.0
2017-Oct-28 07:58N 28°08' W 015°25'0 0.0
2017-Oct-28 07:25N 28°08' W 015°25'0 0.0
2017-Oct-28 06:59N 28°08' W 015°25'0 0.0
2017-Oct-28 06:23N 28°08' W 015°25'0 0.0
2017-Oct-28 05:59N 28°08' W 015°25'0 0.0
2017-Oct-28 05:30N 28°08' W 015°25'0 0.0
2017-Oct-28 04:57N 28°08' W 015°25'0 0.0
2017-Oct-28 04:30N 28°08' W 015°25'0 0.0
2017-Oct-28 03:55N 28°08' W 015°25'0 0.0
2017-Oct-28 03:28N 28°08' W 015°25'0 0.0
2017-Oct-28 02:52N 28°08' W 015°25'0 0.0
2017-Oct-28 02:29N 28°08' W 015°25'0 0.0
2017-Oct-28 01:59N 28°08' W 015°25'0 0.0
2017-Oct-28 01:26N 28°08' W 015°25'0 0.0
2017-Oct-28 00:48N 28°08' W 015°25'0 0.0
2017-Oct-28 00:24N 28°08' W 015°25'0 0.0
2017-Oct-28 00:00N 28°08' W 015°25'0 0.0
2017-Oct-27 23:22N 28°08' W 015°25'0 0.0
2017-Oct-27 22:58N 28°08' W 015°25'0 0.0
2017-Oct-27 22:19N 28°08' W 015°25'0 0.0
2017-Oct-27 21:56N 28°08' W 015°25'0 0.0
2017-Oct-27 21:29N 28°08' W 015°25'0 0.0
2017-Oct-27 20:53N 28°08' W 015°25'0 0.0
2017-Oct-27 20:30N 28°08' W 015°25'0 0.0
2017-Oct-27 20:00N 28°08' W 015°25'0 0.0
2017-Oct-27 19:27N 28°08' W 015°25'0 0.0
2017-Oct-27 18:49N 28°08' W 015°25'0 0.0
2017-Oct-27 18:25N 28°08' W 015°25'0 0.0
2017-Oct-27 17:58N 28°08' W 015°25'0 0.0
2017-Oct-27 17:20N 28°08' W 015°25'0 0.0
2017-Oct-27 16:56N 28°08' W 015°25'0 0.0
2017-Oct-27 16:29N 28°08' W 015°25'0 0.0
2017-Oct-27 15:45N 28°08' W 015°25'0 0.0
2017-Oct-27 15:30N 28°08' W 015°25'0 0.0
2017-Oct-27 14:54N 28°08' W 015°25'0 0.0
2017-Oct-27 14:28N 28°08' W 015°25'0 0.0
2017-Oct-27 13:28N 28°08' W 015°25'0 0.0
2017-Oct-27 12:50N 28°08' W 015°25'0 0.0
2017-Oct-27 12:26N 28°08' W 015°25'0 0.0
2017-Oct-27 11:59N 28°08' W 015°25'0 0.0
2017-Oct-27 11:24N 28°08' W 015°25'0 0.0
2017-Oct-27 11:00N 28°08' W 015°25'0 0.0
2017-Oct-27 10:24N 28°08' W 015°25'0 0.0
2017-Oct-27 09:58N 28°08' W 015°25'0 0.0
2017-Oct-27 09:22N 28°08' W 015°25'0 0.0
2017-Oct-27 08:55N 28°08' W 015°25'0 0.0
2017-Oct-27 08:29N 28°08' W 015°25'0 0.0
2017-Oct-27 07:53N 28°08' W 015°25'0 0.0
2017-Oct-27 07:29N 28°08' W 015°25'0 0.0
2017-Oct-27 06:51N 28°08' W 015°25'0 0.0
2017-Oct-27 06:27N 28°08' W 015°25'0 0.0
2017-Oct-27 06:00N 28°08' W 015°25'0 0.0
2017-Oct-27 05:25N 28°08' W 015°25'0 0.0
2017-Oct-27 04:58N 28°08' W 015°25'0 0.0
2017-Oct-27 04:25N 28°08' W 015°25'0 0.0
2017-Oct-27 03:59N 28°08' W 015°25'0 0.0
2017-Oct-27 03:23N 28°08' W 015°25'0 0.0
2017-Oct-27 02:56N 28°08' W 015°25'0 0.0
2017-Oct-27 02:30N 28°08' W 015°25'0 0.0
2017-Oct-27 01:54N 28°08' W 015°25'0 0.0
2017-Oct-27 01:30N 28°08' W 015°25'0 0.0
2017-Oct-27 00:55N 28°08' W 015°25'0 0.0
2017-Oct-27 00:28N 28°08' W 015°25'0 0.0
2017-Oct-26 23:52N 28°08' W 015°25'0 0.0
2017-Oct-26 23:26N 28°08' W 015°25'0 0.0
2017-Oct-26 22:59N 28°08' W 015°25'0 0.0
2017-Oct-26 22:26N 28°08' W 015°25'0 0.0
2017-Oct-26 22:00N 28°08' W 015°25'0 0.0
2017-Oct-26 21:24N 28°08' W 015°25'0 0.0
2017-Oct-26 20:57N 28°08' W 015°25'0 0.0
2017-Oct-26 20:22N 28°08' W 015°25'0 0.0
2017-Oct-26 19:58N 28°08' W 015°25'0 0.0
2017-Oct-26 19:28N 28°08' W 015°25'0 0.0
2017-Oct-26 18:56N 28°08' W 015°25'0 0.0
2017-Oct-26 18:29N 28°08' W 015°25'0 0.0
2017-Oct-26 17:53N 28°08' W 015°25'0 0.0
2017-Oct-26 17:30N 28°08' W 015°25'0 0.0
2017-Oct-26 17:00N 28°08' W 015°25'0 0.0
2017-Oct-26 16:27N 28°08' W 015°25'  
Track history (hours):
 
Tides and Currents Weather Stations Pressure Air Temp Water Temp Dewpoint Dewpoint Depression Visibility Wind Speed Wind Dir Waves Ship Positions

Christian Radich (Norway)

Last reported at 2017-Nov-05 16:21 UTC. Time now 2017-Nov-20 15:44 UTC.
Position N 27°41' W 015°16'.
Warning: this ship's position is 14 days out of date.

Length 63 m; draft 5 m.

MMSI: 258373000.

Date/timePositionNaut miles runAvg speedWind from/ knotsBaromVisibWave heightAir tempDewpointWater temp
2017-Nov-05 16:21N 27°41' W 015°16'3 8.4
2017-Nov-05 15:58N 27°45' W 015°15'4 8.7
2017-Nov-05 15:30N 27°49' W 015°16'4 8.7
2017-Nov-05 15:00N 27°53' W 015°16'3 6.8
2017-Nov-05 14:30N 27°56' W 015°16'3 6.5
2017-Nov-05 14:00N 27°59' W 015°18'3 6.5
2017-Nov-05 13:30N 28°02' W 015°19'3 6.2
2017-Nov-05 13:00N 28°05' W 015°20'2 4.2
2017-Nov-05 12:30N 28°07' W 015°22'2 4.1
2017-Nov-05 12:00N 28°07' W 015°24'2 2.9
2017-Nov-05 11:23N 28°08' W 015°25'0 0.0
2017-Nov-05 10:59N 28°08' W 015°25'0 0.0
2017-Nov-05 10:29N 28°08' W 015°25'0 0.0
2017-Nov-05 09:57N 28°08' W 015°25'0 0.0
2017-Nov-05 09:30N 28°08' W 015°25'0 0.0
2017-Nov-05 08:54N 28°08' W 015°25'0 0.0
2017-Nov-05 08:25N 28°08' W 015°25'0 0.0
2017-Nov-05 07:49N 28°08' W 015°25'0 0.0
2017-Nov-05 07:28N 28°08' W 015°25'0 0.0
2017-Nov-05 06:50N 28°08' W 015°25'0 0.0
2017-Nov-05 06:26N 28°08' W 015°25'0 0.0
2017-Nov-05 05:59N 28°08' W 015°25'0 0.0
2017-Nov-05 05:24N 28°08' W 015°25'0 0.0
2017-Nov-05 05:00N 28°08' W 015°25'0 0.0
2017-Nov-05 04:30N 28°08' W 015°25'0 0.0
2017-Nov-05 03:58N 28°08' W 015°25'0 0.0
2017-Nov-05 03:19N 28°08' W 015°25'0 0.0
2017-Nov-05 02:55N 28°08' W 015°25'0 0.0
2017-Nov-05 02:29N 28°08' W 015°25'0 0.0
2017-Nov-05 01:53N 28°08' W 015°25'0 0.0
2017-Nov-05 01:29N 28°08' W 015°25'0 0.0
2017-Nov-05 00:54N 28°08' W 015°25'0 0.0
2017-Nov-05 00:27N 28°08' W 015°25'0 0.0
2017-Nov-05 00:00N 28°08' W 015°25'0 0.0
2017-Nov-04 23:25N 28°08' W 015°25'0 0.0
2017-Nov-04 22:58N 28°08' W 015°25'0 0.0
2017-Nov-04 22:22N 28°08' W 015°25'0 0.0
2017-Nov-04 21:59N 28°08' W 015°25'0 0.0
2017-Nov-04 21:23N 28°08' W 015°25'0 0.0
2017-Nov-04 20:56N 28°08' W 015°25'0 0.0
2017-Nov-04 20:30N 28°08' W 015°25'0 0.0
2017-Nov-04 19:54N 28°08' W 015°25'0 0.0
2017-Nov-04 19:18N 28°08' W 015°25'0 0.0
2017-Nov-04 18:55N 28°08' W 015°25'0 0.0
2017-Nov-04 18:28N 28°08' W 015°25'0 0.0
2017-Nov-04 17:52N 28°08' W 015°25'0 0.0
2017-Nov-04 17:26N 28°08' W 015°25'0 0.0
2017-Nov-04 16:59N 28°08' W 015°25'0 0.0
2017-Nov-04 16:23N 28°08' W 015°25'0 0.0
2017-Nov-04 16:00N 28°08' W 015°25'0 0.0
2017-Nov-04 15:24N 28°08' W 015°25'0 0.0
2017-Nov-04 14:57N 28°08' W 015°25'0 0.0
2017-Nov-04 14:22N 28°08' W 015°25'0 0.0
2017-Nov-04 13:55N 28°08' W 015°25'0 0.0
2017-Nov-04 13:28N 28°08' W 015°25'0 0.0
2017-Nov-04 12:56N 28°08' W 015°25'0 0.0
2017-Nov-04 12:29N 28°08' W 015°25'0 0.0
2017-Nov-04 11:53N 28°08' W 015°25'0 0.0
2017-Nov-04 11:27N 28°08' W 015°25'0 0.0
2017-Nov-04 11:00N 28°08' W 015°25'0 0.0
2017-Nov-04 10:27N 28°08' W 015°25'0 0.0
2017-Nov-04 09:58N 28°08' W 015°25'0 0.0
2017-Nov-04 09:25N 28°08' W 015°25'0 0.0
2017-Nov-04 08:58N 28°08' W 015°25'0 0.0
2017-Nov-04 08:23N 28°08' W 015°25'0 0.0
2017-Nov-04 07:59N 28°08' W 015°25'0 0.0
2017-Nov-04 07:29N 28°08' W 015°25'0 0.0
2017-Nov-04 06:57N 28°08' W 015°25'0 0.0
2017-Nov-04 06:15N 28°08' W 015°25'0 0.0
2017-Nov-04 05:54N 28°08' W 015°25'0 0.0
2017-Nov-04 05:28N 28°08' W 015°25'0 0.0
2017-Nov-04 04:52N 28°08' W 015°25'0 0.0
2017-Nov-04 04:28N 28°08' W 015°25'0 0.0
2017-Nov-04 03:59N 28°08' W 015°25'0 0.0
2017-Nov-04 03:26N 28°08' W 015°25'0 0.0
2017-Nov-04 02:59N 28°08' W 015°25'0 0.0
2017-Nov-04 02:24N 28°08' W 015°25'0 0.0
2017-Nov-04 02:00N 28°08' W 015°25'0 0.0
2017-Nov-04 01:30N 28°08' W 015°25'0 0.0
2017-Nov-04 00:58N 28°08' W 015°25'0 0.0
2017-Nov-04 00:28N 28°08' W 015°25'0 0.0
2017-Nov-03 23:55N 28°08' W 015°25'0 0.0
2017-Nov-03 23:29N 28°08' W 015°25'0 0.0
2017-Nov-03 22:53N 28°08' W 015°25'0 0.0
2017-Nov-03 22:29N 28°08' W 015°25'0 0.0
2017-Nov-03 22:00N 28°08' W 015°25'0 0.0
2017-Nov-03 21:27N 28°08' W 015°25'0 0.0
2017-Nov-03 21:00N 28°08' W 015°25'0 0.0
2017-Nov-03 20:25N 28°08' W 015°25'0 0.0
2017-Nov-03 19:58N 28°08' W 015°25'0 0.0
2017-Nov-03 19:22N 28°08' W 015°25'0 0.0
2017-Nov-03 18:59N 28°08' W 015°25'0 0.0
2017-Nov-03 18:20N 28°08' W 015°25'0 0.0
2017-Nov-03 17:44N 28°08' W 015°25'0 0.0
2017-Nov-03 17:30N 28°08' W 015°25'0 0.0
2017-Nov-03 16:54N 28°08' W 015°25'0 0.0
2017-Nov-03 16:30N 28°08' W 015°25'0 0.0
2017-Nov-03 15:52N 28°08' W 015°25'0 0.0
2017-Nov-03 15:25N 28°08' W 015°25'0 0.0
2017-Nov-03 14:49N 28°08' W 015°25'0 0.0
2017-Nov-03 14:26N 28°08' W 015°25'0 0.0
2017-Nov-03 13:59N 28°08' W 015°25'0 0.0
2017-Nov-03 13:23N 28°08' W 015°25'0 0.0
2017-Nov-03 12:57N 28°08' W 015°25'0 0.0
2017-Nov-03 12:21N 28°08' W 015°25'0 0.0
2017-Nov-03 11:57N 28°08' W 015°25'0 0.0
2017-Nov-03 11:22N 28°08' W 015°25'0 0.0
2017-Nov-03 10:55N 28°08' W 015°25'0 0.0
2017-Nov-03 10:28N 28°08' W 015°25'0 0.0
2017-Nov-03 09:50N 28°08' W 015°25'0 0.0
2017-Nov-03 09:29N 28°08' W 015°25'0 0.0
2017-Nov-03 08:50N 28°08' W 015°25'0 0.0
2017-Nov-03 08:27N 28°08' W 015°25'0 0.0
2017-Nov-03 08:00N 28°08' W 015°25'0 0.0
2017-Nov-03 07:24N 28°08' W 015°25'0 0.0
2017-Nov-03 06:58N 28°08' W 015°25'0 0.0
2017-Nov-03 06:22N 28°08' W 015°25'0 0.0
2017-Nov-03 05:58N 28°08' W 015°25'0 0.0
2017-Nov-03 05:23N 28°08' W 015°25'0 0.0
2017-Nov-03 04:56N 28°08' W 015°25'0 0.0
2017-Nov-03 04:29N 28°08' W 015°25'0 0.0
2017-Nov-03 03:54N 28°08' W 015°25'0 0.0
2017-Nov-03 03:30N 28°08' W 015°25'0 0.0
2017-Nov-03 02:51N 28°08' W 015°25'0 0.0
2017-Nov-03 02:28N 28°08' W 015°25'0 0.0
2017-Nov-03 01:52N 28°08' W 015°25'0 0.0
2017-Nov-03 01:25N 28°08' W 015°25'0 0.0
2017-Nov-03 00:59N 28°08' W 015°25'0 0.0
2017-Nov-03 00:23N 28°08' W 015°25'0 0.0
2017-Nov-02 23:59N 28°08' W 015°25'0 0.0
2017-Nov-02 23:24N 28°08' W 015°25'0 0.0
2017-Nov-02 22:57N 28°08' W 015°25'0 0.0
2017-Nov-02 22:30N 28°08' W 015°25'0 0.0
2017-Nov-02 21:52N 28°08' W 015°25'0 0.0
2017-Nov-02 21:19N 28°08' W 015°25'0 0.0
2017-Nov-02 20:52N 28°08' W 015°25'0 0.0
2017-Nov-02 20:29N 28°08' W 015°25'0 0.0
2017-Nov-02 19:53N 28°08' W 015°25'0 0.0
2017-Nov-02 19:26N 28°08' W 015°25'0 0.0
2017-Nov-02 19:00N 28°08' W 015°25'0 0.0
2017-Nov-02 18:24N 28°08' W 015°25'0 0.0
2017-Nov-02 18:00N 28°08' W 015°25'0 0.0
2017-Nov-02 17:25N 28°08' W 015°25'0 0.0
2017-Nov-02 16:58N 28°08' W 015°25'0 0.0
2017-Nov-02 16:22N 28°08' W 015°25'0 0.0
2017-Nov-02 15:56N 28°08' W 015°25'0 0.0
2017-Nov-02 15:29N 28°08' W 015°25'0 0.0
2017-Nov-02 14:56N 28°08' W 015°25'0 0.0
2017-Nov-02 14:30N 28°08' W 015°25'0 0.0
2017-Nov-02 13:54N 28°08' W 015°25'0 0.0
2017-Nov-02 13:27N 28°08' W 015°25'0 0.0
2017-Nov-02 12:52N 28°08' W 015°25'0 0.0
2017-Nov-02 12:28N 28°08' W 015°25'0 0.0
2017-Nov-02 11:58N 28°08' W 015°25'0 0.0
2017-Nov-02 11:26N 28°08' W 015°25'0 0.0
2017-Nov-02 10:59N 28°08' W 015°25'0 0.0
2017-Nov-02 10:23N 28°08' W 015°25'0 0.0
2017-Nov-02 10:00N 28°08' W 015°25'0 0.0
2017-Nov-02 09:30N 28°08' W 015°25'0 0.0
2017-Nov-02 08:57N 28°08' W 015°25'0 0.0
2017-Nov-02 08:28N 28°08' W 015°25'0 0.0
2017-Nov-02 07:55N 28°08' W 015°25'0 0.0
2017-Nov-02 07:28N 28°08' W 015°25'0 0.0
2017-Nov-02 06:53N 28°08' W 015°25'0 0.0
2017-Nov-02 06:29N 28°08' W 015°25'0 0.0
2017-Nov-02 05:59N 28°08' W 015°25'0 0.0
2017-Nov-02 05:27N 28°08' W 015°25'0 0.0
2017-Nov-02 05:00N 28°08' W 015°25'0 0.0
2017-Nov-02 04:24N 28°08' W 015°25'0 0.0
2017-Nov-02 03:58N 28°08' W 015°25'0 0.0
2017-Nov-02 03:19N 28°08' W 015°25'0 0.0
2017-Nov-02 02:58N 28°08' W 015°25'0 0.0
2017-Nov-02 02:29N 28°08' W 015°25'0 0.0
2017-Nov-02 01:56N 28°08' W 015°25'0 0.0
2017-Nov-02 01:29N 28°08' W 015°25'0 0.0
2017-Nov-02 00:54N 28°08' W 015°25'0 0.0
2017-Nov-02 00:30N 28°08' W 015°25'0 0.0
2017-Nov-02 00:00N 28°08' W 015°25'0 0.0
2017-Nov-01 23:28N 28°08' W 015°25'0 0.0
2017-Nov-01 22:49N 28°08' W 015°25'0 0.0
2017-Nov-01 22:25N 28°08' W 015°25'0 0.0
2017-Nov-01 21:59N 28°08' W 015°25'0 0.0
2017-Nov-01 21:23N 28°08' W 015°25'0 0.0
2017-Nov-01 20:59N 28°08' W 015°25'0 0.0
2017-Nov-01 20:24N 28°08' W 015°25'0 0.0
2017-Nov-01 19:57N 28°08' W 015°25'0 0.0
2017-Nov-01 19:30N 28°08' W 015°25'0 0.0
2017-Nov-01 18:55N 28°08' W 015°25'0 0.0
2017-Nov-01 18:19N 28°08' W 015°25'0 0.0
2017-Nov-01 01:58N 28°08' W 015°25'0 0.0
2017-Nov-01 01:23N 28°08' W 015°25'0 0.0
2017-Nov-01 00:56N 28°08' W 015°25'0 0.0
2017-Nov-01 00:29N 28°08' W 015°25'0 0.0
2017-Oct-31 23:54N 28°08' W 015°25'0 0.0
2017-Oct-31 23:30N 28°08' W 015°25'0 0.0
2017-Oct-31 22:54N 28°08' W 015°25'0 0.0
2017-Oct-31 22:27N 28°08' W 015°25'0 0.0
2017-Oct-31 21:52N 28°08' W 015°25'0 0.0
2017-Oct-31 21:25N 28°08' W 015°25'0 0.0
2017-Oct-31 20:50N 28°08' W 015°25'0 0.0
2017-Oct-31 20:26N 28°08' W 015°25'0 0.0
2017-Oct-31 19:59N 28°08' W 015°25'0 0.0
2017-Oct-31 19:23N 28°08' W 015°25'0 0.0
2017-Oct-31 18:57N 28°08' W 015°25'0 0.0
2017-Oct-31 18:30N 28°08' W 015°25'0 0.0
2017-Oct-31 17:57N 28°08' W 015°25'0 0.0
2017-Oct-31 17:28N 28°08' W 015°25'0 0.0
2017-Oct-31 16:52N 28°08' W 015°25'0 0.0
2017-Oct-31 16:17N 28°08' W 015°25'0 0.0
2017-Oct-31 15:53N 28°08' W 015°25'0 0.0
2017-Oct-31 15:29N 28°08' W 015°25'0 0.0
2017-Oct-31 14:59N 28°08' W 015°25'0 0.0
2017-Oct-31 14:27N 28°08' W 015°25'0 0.0
2017-Oct-31 14:00N 28°08' W 015°25'0 0.0
2017-Oct-31 13:25N 28°08' W 015°25'0 0.0
2017-Oct-31 12:58N 28°08' W 015°25'0 0.0
2017-Oct-31 12:22N 28°08' W 015°25'0 0.0
2017-Oct-31 11:58N 28°08' W 015°25'0 0.0
2017-Oct-31 11:29N 28°08' W 015°25'0 0.0
2017-Oct-31 10:56N 28°08' W 015°25'0 0.0
2017-Oct-31 10:29N 28°08' W 015°25'0 0.0
2017-Oct-31 09:54N 28°08' W 015°25'0 0.0
2017-Oct-31 09:24N 28°08' W 015°25'0 0.0
2017-Oct-31 09:00N 28°08' W 015°25'0 0.0
2017-Oct-31 08:28N 28°08' W 015°25'0 0.0
2017-Oct-31 07:58N 28°08' W 015°25'0 0.0
2017-Oct-31 07:25N 28°08' W 015°25'0 0.0
2017-Oct-31 06:59N 28°08' W 015°25'0 0.0
2017-Oct-31 06:23N 28°08' W 015°25'0 0.0
2017-Oct-31 05:59N 28°08' W 015°25'0 0.0
2017-Oct-31 05:30N 28°08' W 015°25'0 0.0
2017-Oct-31 04:57N 28°08' W 015°25'0 0.0
2017-Oct-31 04:30N 28°08' W 015°25'0 0.0
2017-Oct-31 03:55N 28°08' W 015°25'0 0.0
2017-Oct-31 03:25N 28°08' W 015°25'0 0.0
2017-Oct-31 02:52N 28°08' W 015°25'0 0.0
2017-Oct-31 02:29N 28°08' W 015°25'0 0.0
2017-Oct-31 01:59N 28°08' W 015°25'0 0.0
2017-Oct-31 01:26N 28°08' W 015°25'0 0.0
2017-Oct-31 01:00N 28°08' W 015°25'0 0.0
2017-Oct-31 00:24N 28°08' W 015°25'0 0.0
2017-Oct-31 00:00N 28°08' W 015°25'0 0.0
2017-Oct-30 23:22N 28°08' W 015°25'0 0.0
2017-Oct-30 22:58N 28°08' W 015°25'0 0.0
2017-Oct-30 22:28N 28°08' W 015°25'0 0.0
2017-Oct-30 21:56N 28°08' W 015°25'0 0.0
2017-Oct-30 21:29N 28°08' W 015°25'0 0.0
2017-Oct-30 20:53N 28°08' W 015°25'0 0.0
2017-Oct-30 20:30N 28°08' W 015°25'0 0.0
2017-Oct-30 20:00N 28°08' W 015°25'0 0.0
2017-Oct-30 19:27N 28°08' W 015°25'0 0.0
2017-Oct-30 18:58N 28°08' W 015°25'0 0.0
2017-Oct-30 18:25N 28°08' W 015°25'0 0.0
2017-Oct-30 17:58N 28°08' W 015°25'0 0.0
2017-Oct-30 17:23N 28°08' W 015°25'0 0.0
2017-Oct-30 16:59N 28°08' W 015°25'0 0.0
2017-Oct-30 16:21N 28°08' W 015°25'0 0.0
2017-Oct-30 15:57N 28°08' W 015°25'0 0.0
2017-Oct-30 15:30N 28°08' W 015°25'0 0.0
2017-Oct-30 14:54N 28°08' W 015°25'0 0.0
2017-Oct-30 13:52N 28°08' W 015°25'0 0.0
2017-Oct-30 13:28N 28°08' W 015°25'0 0.0
2017-Oct-30 12:53N 28°08' W 015°25'0 0.0
2017-Oct-30 12:26N 28°08' W 015°25'0 0.0
2017-Oct-30 11:59N 28°08' W 015°25'0 0.0
2017-Oct-30 11:24N 28°08' W 015°25'0 0.0
2017-Oct-30 11:00N 28°08' W 015°25'0 0.0
2017-Oct-30 10:30N 28°08' W 015°25'0 0.0
2017-Oct-30 09:58N 28°08' W 015°25'0 0.0
2017-Oct-30 09:19N 28°08' W 015°25'0 0.0
2017-Oct-30 08:55N 28°08' W 015°25'0 0.0
2017-Oct-30 08:29N 28°08' W 015°25'0 0.0
2017-Oct-30 07:53N 28°08' W 015°25'0 0.0
2017-Oct-30 07:29N 28°08' W 015°25'0 0.0
2017-Oct-30 06:54N 28°08' W 015°25'0 0.0
2017-Oct-30 06:27N 28°08' W 015°25'0 0.0
2017-Oct-30 06:00N 28°08' W 015°25'0 0.0
2017-Oct-30 05:25N 28°08' W 015°25'0 0.0
2017-Oct-30 04:58N 28°08' W 015°25'0 0.0
2017-Oct-30 04:25N 28°08' W 015°25'0 0.0
2017-Oct-30 03:59N 28°08' W 015°25'0 0.0
2017-Oct-30 03:23N 28°08' W 015°25'0 0.0
2017-Oct-30 02:56N 28°08' W 015°25'0 0.0
2017-Oct-30 02:30N 28°08' W 015°25'0 0.0
2017-Oct-30 01:57N 28°08' W 015°25'0 0.0
2017-Oct-30 01:30N 28°08' W 015°25'0 0.0
2017-Oct-30 00:55N 28°08' W 015°25'0 0.0
2017-Oct-30 00:28N 28°08' W 015°25'0 0.0
2017-Oct-29 23:53N 28°08' W 015°25'0 0.0
2017-Oct-29 23:26N 28°08' W 015°25'0 0.0
2017-Oct-29 22:59N 28°08' W 015°25'0 0.0
2017-Oct-29 22:26N 28°08' W 015°25'0 0.0
2017-Oct-29 22:00N 28°08' W 015°25'0 0.0
2017-Oct-29 21:24N 28°08' W 015°25'0 0.0
2017-Oct-29 20:57N 28°08' W 015°25'0 0.0
2017-Oct-29 20:22N 28°08' W 015°25'0 0.0
2017-Oct-29 19:58N 28°08' W 015°25'0 0.0
2017-Oct-29 19:28N 28°08' W 015°25'0 0.0
2017-Oct-29 18:44N 28°08' W 015°25'0 0.0
2017-Oct-29 18:29N 28°08' W 015°25'0 0.0
2017-Oct-29 17:54N 28°08' W 015°25'0 0.0
2017-Oct-29 17:30N 28°08' W 015°25'0 0.0
2017-Oct-29 17:00N 28°08' W 015°25'0 0.0
2017-Oct-29 16:27N 28°08' W 015°25'0 0.0
2017-Oct-29 15:58N 28°08' W 015°25'0 0.0
2017-Oct-29 15:25N 28°08' W 015°25'0 0.0
2017-Oct-29 14:55N 28°08' W 015°25'0 0.0
2017-Oct-29 14:23N 28°08' W 015°25'0 0.0
2017-Oct-29 13:56N 28°08' W 015°25'0 0.0
2017-Oct-29 13:29N 28°08' W 015°25'0 0.0
2017-Oct-29 12:57N 28°08' W 015°25'0 0.0
2017-Oct-29 12:30N 28°08' W 015°25'0 0.0
2017-Oct-29 11:54N 28°08' W 015°25'0 0.0
2017-Oct-29 11:28N 28°08' W 015°25'0 0.0
2017-Oct-29 10:52N 28°08' W 015°25'0 0.0
2017-Oct-29 10:28N 28°08' W 015°25'0 0.0
2017-Oct-29 09:59N 28°08' W 015°25'0 0.0
2017-Oct-29 09:14N 28°08' W 015°25'0 0.0
2017-Oct-29 08:59N 28°08' W 015°25'0 0.0
2017-Oct-29 08:24N 28°08' W 015°25'0 0.0
2017-Oct-29 08:00N 28°08' W 015°25'0 0.0
2017-Oct-29 07:30N 28°08' W 015°25'0 0.0
2017-Oct-29 06:58N 28°08' W 015°25'0 0.0
2017-Oct-29 06:28N 28°08' W 015°25'0 0.0
2017-Oct-29 05:55N 28°08' W 015°25'0 0.0
2017-Oct-29 05:29N 28°08' W 015°25'0 0.0
2017-Oct-29 04:53N 28°08' W 015°25'0 0.0
2017-Oct-29 04:29N 28°08' W 015°25'0 0.0
2017-Oct-29 03:48N 28°08' W 015°25'0 0.0
2017-Oct-28 18:57N 28°08' W 015°25'0 0.0
2017-Oct-28 18:30N 28°08' W 015°25'0 0.0
2017-Oct-28 17:57N 28°08' W 015°25'0 0.0
2017-Oct-28 17:28N 28°08' W 015°25'0 0.0
2017-Oct-28 16:55N 28°08' W 015°25'0 0.0
2017-Oct-28 16:28N 28°08' W 015°25'0 0.0
2017-Oct-28 15:53N 28°08' W 015°25'0 0.0
2017-Oct-28 15:29N 28°08' W 015°25'0 0.0
2017-Oct-28 14:59N 28°08' W 015°25'0 0.0
2017-Oct-28 14:27N 28°08' W 015°25'0 0.0
2017-Oct-28 14:00N 28°08' W 015°25'0 0.0
2017-Oct-28 13:24N 28°08' W 015°25'0 0.0
2017-Oct-28 12:58N 28°08' W 015°25'0 0.0
2017-Oct-28 12:19N 28°08' W 015°25'0 0.0
2017-Oct-28 11:55N 28°08' W 015°25'0 0.0
2017-Oct-28 11:29N 28°08' W 015°25'0 0.0
2017-Oct-28 10:56N 28°08' W 015°25'0 0.0
2017-Oct-28 10:29N 28°08' W 015°25'0 0.0
2017-Oct-28 09:54N 28°08' W 015°25'0 0.0
2017-Oct-28 09:27N 28°08' W 015°25'0 0.0
2017-Oct-28 09:00N 28°08' W 015°25'0 0.0
2017-Oct-28 08:28N 28°08' W 015°25'0 0.0
2017-Oct-28 07:58N 28°08' W 015°25'0 0.0
2017-Oct-28 07:25N 28°08' W 015°25'0 0.0
2017-Oct-28 06:59N 28°08' W 015°25'0 0.0
2017-Oct-28 06:23N 28°08' W 015°25'0 0.0
2017-Oct-28 05:59N 28°08' W 015°25'0 0.0
2017-Oct-28 05:30N 28°08' W 015°25'0 0.0
2017-Oct-28 04:57N 28°08' W 015°25'0 0.0
2017-Oct-28 04:30N 28°08' W 015°25'0 0.0
2017-Oct-28 03:55N 28°08' W 015°25'0 0.0
2017-Oct-28 03:28N 28°08' W 015°25'0 0.0
2017-Oct-28 02:52N 28°08' W 015°25'0 0.0
2017-Oct-28 02:29N 28°08' W 015°25'0 0.0
2017-Oct-28 01:59N 28°08' W 015°25'0 0.0
2017-Oct-28 01:26N 28°08' W 015°25'0 0.0
2017-Oct-28 00:48N 28°08' W 015°25'0 0.0
2017-Oct-28 00:24N 28°08' W 015°25'0 0.0
2017-Oct-28 00:00N 28°08' W 015°25'0 0.0
2017-Oct-27 23:22N 28°08' W 015°25'0 0.0
2017-Oct-27 22:58N 28°08' W 015°25'0 0.0
2017-Oct-27 22:19N 28°08' W 015°25'0 0.0
2017-Oct-27 21:56N 28°08' W 015°25'0 0.0
2017-Oct-27 21:29N 28°08' W 015°25'0 0.0
2017-Oct-27 20:53N 28°08' W 015°25'0 0.0
2017-Oct-27 20:30N 28°08' W 015°25'0 0.0
2017-Oct-27 20:00N 28°08' W 015°25'0 0.0
2017-Oct-27 19:27N 28°08' W 015°25'0 0.0
2017-Oct-27 18:49N 28°08' W 015°25'0 0.0
2017-Oct-27 18:25N 28°08' W 015°25'0 0.0
2017-Oct-27 17:58N 28°08' W 015°25'0 0.0
2017-Oct-27 17:20N 28°08' W 015°25'0 0.0
2017-Oct-27 16:56N 28°08' W 015°25'0 0.0
2017-Oct-27 16:29N 28°08' W 015°25'0 0.0
2017-Oct-27 15:45N 28°08' W 015°25'0 0.0
2017-Oct-27 15:30N 28°08' W 015°25'0 0.0
2017-Oct-27 14:54N 28°08' W 015°25'0 0.0
2017-Oct-27 14:28N 28°08' W 015°25'0 0.0
2017-Oct-27 13:28N 28°08' W 015°25'0 0.0
2017-Oct-27 12:50N 28°08' W 015°25'0 0.0
2017-Oct-27 12:26N 28°08' W 015°25'0 0.0
2017-Oct-27 11:59N 28°08' W 015°25'0 0.0
2017-Oct-27 11:24N 28°08' W 015°25'0 0.0
2017-Oct-27 11:00N 28°08' W 015°25'0 0.0
2017-Oct-27 10:24N 28°08' W 015°25'0 0.0
2017-Oct-27 09:58N 28°08' W 015°25'0 0.0
2017-Oct-27 09:22N 28°08' W 015°25'0 0.0
2017-Oct-27 08:55N 28°08' W 015°25'0 0.0
2017-Oct-27 08:29N 28°08' W 015°25'0 0.0
2017-Oct-27 07:53N 28°08' W 015°25'0 0.0
2017-Oct-27 07:29N 28°08' W 015°25'0 0.0
2017-Oct-27 06:51N 28°08' W 015°25'0 0.0
2017-Oct-27 06:27N 28°08' W 015°25'0 0.0
2017-Oct-27 06:00N 28°08' W 015°25'0 0.0
2017-Oct-27 05:25N 28°08' W 015°25'0 0.0
2017-Oct-27 04:58N 28°08' W 015°25'0 0.0
2017-Oct-27 04:25N 28°08' W 015°25'0 0.0
2017-Oct-27 03:59N 28°08' W 015°25'0 0.0
2017-Oct-27 03:23N 28°08' W 015°25'0 0.0
2017-Oct-27 02:56N 28°08' W 015°25'0 0.0
2017-Oct-27 02:30N 28°08' W 015°25'0 0.0
2017-Oct-27 01:54N 28°08' W 015°25'0 0.0
2017-Oct-27 01:30N 28°08' W 015°25'0 0.0
2017-Oct-27 00:55N 28°08' W 015°25'0 0.0
2017-Oct-27 00:28N 28°08' W 015°25'0 0.0
2017-Oct-26 23:52N 28°08' W 015°25'0 0.0
2017-Oct-26 23:26N 28°08' W 015°25'0 0.0
2017-Oct-26 22:59N 28°08' W 015°25'0 0.0
2017-Oct-26 22:26N 28°08' W 015°25'0 0.0
2017-Oct-26 22:00N 28°08' W 015°25'0 0.0
2017-Oct-26 21:24N 28°08' W 015°25'0 0.0
2017-Oct-26 20:57N 28°08' W 015°25'0 0.0
2017-Oct-26 20:22N 28°08' W 015°25'0 0.0
2017-Oct-26 19:58N 28°08' W 015°25'0 0.0
2017-Oct-26 19:28N 28°08' W 015°25'0 0.0
2017-Oct-26 18:56N 28°08' W 015°25'0 0.0
2017-Oct-26 18:29N 28°08' W 015°25'0 0.0
2017-Oct-26 17:53N 28°08' W 015°25'0 0.0
2017-Oct-26 17:30N 28°08' W 015°25'0 0.0
2017-Oct-26 17:00N 28°08' W 015°25'0 0.0
2017-Oct-26 16:27N 28°08' W 015°25'  

Dump ship's entire track history